createdAt,value
2018-08-22T00:00:04.311Z,15.21
2018-08-22T00:02:33.542Z,15.24
2018-08-22T00:05:02.631Z,15.25
2018-08-22T00:07:31.667Z,15.25
2018-08-22T00:10:00.667Z,15.22
2018-08-22T00:12:31.655Z,15.21
2018-08-22T00:15:00.676Z,15.19
2018-08-22T00:17:43.496Z,15.16
2018-08-22T00:20:12.595Z,15.13
2018-08-22T00:22:41.852Z,15.10
2018-08-22T00:25:11.800Z,15.10
2018-08-22T00:27:41.257Z,15.09
2018-08-22T00:30:10.452Z,15.07
2018-08-22T00:32:39.553Z,15.08
2018-08-22T00:35:08.671Z,15.05
2018-08-22T00:37:37.771Z,15.04
2018-08-22T00:40:06.869Z,15.02
2018-08-22T00:42:35.856Z,15.00
2018-08-22T00:45:06.437Z,14.99
2018-08-22T00:47:35.657Z,14.97
2018-08-22T00:50:04.713Z,14.96
2018-08-22T00:52:33.854Z,14.94
2018-08-22T00:55:03.166Z,14.92
2018-08-22T00:57:32.340Z,14.93
2018-08-22T01:00:01.773Z,14.92
2018-08-22T01:02:30.716Z,14.92
2018-08-22T01:04:59.872Z,14.91
2018-08-22T01:07:28.933Z,14.96
2018-08-22T01:09:57.928Z,14.98
2018-08-22T01:12:27.167Z,14.99
2018-08-22T01:14:56.092Z,15.03
2018-08-22T01:17:25.162Z,15.09
2018-08-22T01:19:54.160Z,15.15
2018-08-22T01:22:23.112Z,15.21
2018-08-22T01:24:52.189Z,15.31
2018-08-22T01:27:22.550Z,15.40
2018-08-22T01:29:53.732Z,15.50
2018-08-22T01:32:23.089Z,15.59
2018-08-22T01:34:53.248Z,15.68
2018-08-22T01:37:22.225Z,15.79
2018-08-22T01:39:51.215Z,15.88
2018-08-22T01:42:20.254Z,15.97
2018-08-22T01:44:49.164Z,16.03
2018-08-22T01:47:18.257Z,16.07
2018-08-22T01:49:47.261Z,16.12
2018-08-22T01:52:16.193Z,16.18
2018-08-22T01:54:45.411Z,16.20
2018-08-22T01:57:14.371Z,16.23
2018-08-22T01:59:43.377Z,16.26
2018-08-22T02:02:12.240Z,16.29
2018-08-22T02:04:41.326Z,16.33
2018-08-22T02:07:10.266Z,16.34
2018-08-22T02:09:39.300Z,16.34
2018-08-22T02:12:08.184Z,16.35
2018-08-22T02:14:37.241Z,16.33
2018-08-22T02:17:06.303Z,16.33
2018-08-22T02:19:35.376Z,16.31
2018-08-22T02:22:04.230Z,16.27
2018-08-22T02:24:33.633Z,16.26
2018-08-22T02:27:02.592Z,16.26
2018-08-22T02:29:31.646Z,16.23
2018-08-22T02:32:00.681Z,16.23
2018-08-22T02:34:29.751Z,16.17
2018-08-22T02:36:58.816Z,16.12
2018-08-22T02:39:27.868Z,16.08
2018-08-22T02:41:56.769Z,16.02
2018-08-22T02:44:25.975Z,16.00
2018-08-22T02:46:55.009Z,15.94
2018-08-22T02:49:24.001Z,15.92
2018-08-22T02:51:52.946Z,15.91
2018-08-22T02:54:21.967Z,15.93
2018-08-22T02:56:51.030Z,15.92
2018-08-22T02:59:20.071Z,15.89
2018-08-22T03:01:49.160Z,15.87
2018-08-22T03:04:18.337Z,15.84
2018-08-22T03:06:47.190Z,15.78
2018-08-22T03:09:16.605Z,15.74
2018-08-22T03:11:45.521Z,15.69
2018-08-22T03:14:14.633Z,15.68
2018-08-22T03:16:43.652Z,15.65
2018-08-22T03:19:12.608Z,15.63
2018-08-22T03:21:41.511Z,15.60
2018-08-22T03:24:10.533Z,15.56
2018-08-22T03:26:39.577Z,15.56
2018-08-22T03:29:08.947Z,15.58
2018-08-22T03:31:37.802Z,15.59
2018-08-22T03:34:07.012Z,15.60
2018-08-22T03:36:35.984Z,15.62
2018-08-22T03:39:06.276Z,15.62
2018-08-22T03:41:35.264Z,15.63
2018-08-22T03:44:04.284Z,15.63
2018-08-22T03:46:33.376Z,15.65
2018-08-22T03:49:02.428Z,15.68
2018-08-22T03:51:31.394Z,15.67
2018-08-22T03:54:00.399Z,15.64
2018-08-22T03:56:29.612Z,15.64
2018-08-22T03:58:58.522Z,15.63
2018-08-22T04:01:27.531Z,15.64
2018-08-22T04:03:56.442Z,15.63
2018-08-22T04:06:25.611Z,15.61
2018-08-22T04:08:55.133Z,15.57
2018-08-22T04:11:24.349Z,15.51
2018-08-22T04:13:53.414Z,15.50
2018-08-22T04:16:22.530Z,15.47
2018-08-22T04:18:51.617Z,15.43
2018-08-22T04:21:20.685Z,15.35
2018-08-22T04:23:49.657Z,15.29
2018-08-22T04:26:22.395Z,15.25
2018-08-22T04:28:51.512Z,15.23
2018-08-22T04:31:20.571Z,15.25
2018-08-22T04:33:49.670Z,15.21
2018-08-22T04:36:18.741Z,15.25
2018-08-22T04:38:47.817Z,15.30
2018-08-22T04:41:16.953Z,15.35
2018-08-22T04:43:46.013Z,15.40
2018-08-22T04:46:15.145Z,15.47
2018-08-22T04:48:44.254Z,15.48
2018-08-22T04:51:13.275Z,15.56
2018-08-22T04:53:42.433Z,15.65
2018-08-22T04:56:11.498Z,15.81
2018-08-22T04:58:40.539Z,15.99
2018-08-22T05:01:09.483Z,16.14
2018-08-22T05:03:38.551Z,16.29
2018-08-22T05:06:07.638Z,16.45
2018-08-22T05:08:36.766Z,16.63
2018-08-22T05:11:05.951Z,16.78
2018-08-22T05:13:34.997Z,16.90
2018-08-22T05:16:03.988Z,17.04
2018-08-22T05:18:33.015Z,17.19
2018-08-22T05:21:02.213Z,17.30
2018-08-22T05:23:31.364Z,17.43
2018-08-22T05:26:01.578Z,17.57
2018-08-22T05:28:30.607Z,17.66
2018-08-22T05:30:59.915Z,17.70
2018-08-22T05:33:28.934Z,17.70
2018-08-22T05:35:57.962Z,17.66
2018-08-22T05:38:26.976Z,17.62
2018-08-22T05:40:56.062Z,17.59
2018-08-22T05:43:25.383Z,17.56
2018-08-22T05:45:54.513Z,17.58
2018-08-22T05:48:23.662Z,17.67
2018-08-22T05:50:52.815Z,17.80
2018-08-22T05:53:21.928Z,17.95
2018-08-22T05:55:50.966Z,18.16
2018-08-22T05:58:20.091Z,18.39
2018-08-22T06:00:49.842Z,18.61
2018-08-22T06:03:18.972Z,18.80
2018-08-22T06:05:48.017Z,18.94
2018-08-22T06:08:17.265Z,19.03
2018-08-22T06:10:46.303Z,19.14
2018-08-22T06:13:15.329Z,19.24
2018-08-22T06:15:44.351Z,19.41
2018-08-22T06:18:13.490Z,19.60
2018-08-22T06:20:42.820Z,19.89
2018-08-22T06:23:11.950Z,20.21
2018-08-22T06:25:41.095Z,20.54
2018-08-22T06:28:10.181Z,20.96
2018-08-22T06:30:39.457Z,21.43
2018-08-22T06:33:08.794Z,21.75
2018-08-22T06:35:38.071Z,22.11
2018-08-22T06:38:07.210Z,22.45
2018-08-22T06:40:36.266Z,22.75
2018-08-22T06:43:05.290Z,23.05
2018-08-22T06:45:34.825Z,23.14
2018-08-22T06:48:04.036Z,23.10
2018-08-22T06:50:33.158Z,23.05
2018-08-22T06:53:02.762Z,22.95
2018-08-22T06:55:31.952Z,22.87
2018-08-22T06:58:01.085Z,22.86
2018-08-22T07:00:30.201Z,22.86
2018-08-22T07:02:59.319Z,22.89
2018-08-22T07:05:28.428Z,22.93
2018-08-22T07:07:58.187Z,22.90
2018-08-22T07:10:27.450Z,22.91
2018-08-22T07:12:56.601Z,22.90
2018-08-22T07:15:25.969Z,22.83
2018-08-22T07:17:55.488Z,22.68
2018-08-22T07:20:24.652Z,22.47
2018-08-22T07:22:54.289Z,22.34
2018-08-22T07:25:23.413Z,22.23
2018-08-22T07:27:52.513Z,22.18
2018-08-22T07:30:22.206Z,22.16
2018-08-22T07:32:51.334Z,22.18
2018-08-22T07:35:20.413Z,22.23
2018-08-22T07:37:49.613Z,22.24
2018-08-22T07:40:19.144Z,22.33
2018-08-22T07:42:48.258Z,22.46
2018-08-22T07:45:18.345Z,22.59
2018-08-22T07:47:47.875Z,22.67
2018-08-22T07:50:16.982Z,22.76
2018-08-22T07:52:51.348Z,22.88
2018-08-22T07:55:20.675Z,22.96
2018-08-22T07:57:52.990Z,23.02
2018-08-22T08:00:22.133Z,23.08
2018-08-22T08:02:51.466Z,23.11
2018-08-22T08:05:21.164Z,23.19
2018-08-22T08:07:50.267Z,23.27
2018-08-22T08:10:24.401Z,23.38
2018-08-22T08:12:53.871Z,23.46
2018-08-22T08:15:23.383Z,23.52
2018-08-22T08:17:52.371Z,23.61
2018-08-22T08:20:21.583Z,23.71
2018-08-22T08:22:50.773Z,23.86
2018-08-22T08:25:19.993Z,24.00
2018-08-22T08:27:49.071Z,24.12
2018-08-22T08:30:18.678Z,24.15
2018-08-22T08:32:47.798Z,24.19
2018-08-22T08:35:16.955Z,24.34
2018-08-22T08:37:46.158Z,24.42
2018-08-22T08:40:15.262Z,24.57
2018-08-22T08:42:46.080Z,24.71
2018-08-22T08:45:15.189Z,24.82
2018-08-22T08:47:44.476Z,24.87
2018-08-22T08:50:13.864Z,24.95
2018-08-22T08:52:43.031Z,25.04
2018-08-22T08:55:12.081Z,25.10
2018-08-22T08:57:41.225Z,25.20
2018-08-22T09:00:10.473Z,25.29
2018-08-22T09:02:39.544Z,25.43
2018-08-22T09:05:08.812Z,25.54
2018-08-22T09:07:37.891Z,25.64
2018-08-22T09:10:07.409Z,25.70
2018-08-22T09:12:39.486Z,25.71
2018-08-22T09:15:08.630Z,25.76
2018-08-22T09:17:37.757Z,25.91
2018-08-22T09:20:07.658Z,26.06
2018-08-22T09:22:37.010Z,26.22
2018-08-22T09:25:06.199Z,26.32
2018-08-22T09:27:38.817Z,26.41
2018-08-22T09:30:07.960Z,26.45
2018-08-22T09:32:37.018Z,26.58
2018-08-22T09:35:06.153Z,26.74
2018-08-22T09:37:44.171Z,26.87
2018-08-22T09:40:13.515Z,26.95
2018-08-22T09:42:42.614Z,27.19
2018-08-22T09:45:11.790Z,27.40
2018-08-22T09:47:40.890Z,27.71
2018-08-22T09:50:10.205Z,28.08
2018-08-22T09:52:39.450Z,28.40
2018-08-22T09:55:08.695Z,28.81
2018-08-22T09:57:37.786Z,28.98
2018-08-22T10:00:07.533Z,29.21
2018-08-22T10:02:36.681Z,29.30
2018-08-22T10:05:05.915Z,29.42
2018-08-22T10:07:35.052Z,29.47
2018-08-22T10:10:04.449Z,29.47
2018-08-22T10:12:34.357Z,29.40
2018-08-22T10:15:03.771Z,29.28
2018-08-22T10:17:32.901Z,29.28
2018-08-22T10:20:01.979Z,29.27
2018-08-22T10:22:31.021Z,29.05
2018-08-22T10:25:00.841Z,28.92
2018-08-22T10:27:30.022Z,28.99
2018-08-22T10:29:59.184Z,29.18
2018-08-22T10:32:28.279Z,29.43
2018-08-22T10:34:57.483Z,29.55
2018-08-22T10:37:26.715Z,29.68
2018-08-22T10:39:55.886Z,29.89
2018-08-22T10:42:25.113Z,30.03
2018-08-22T10:44:54.302Z,30.08
2018-08-22T10:47:23.498Z,30.11
2018-08-22T10:49:52.708Z,29.99
2018-08-22T10:52:21.751Z,30.01
2018-08-22T10:54:50.937Z,30.17
2018-08-22T10:57:19.996Z,30.34
2018-08-22T10:59:49.070Z,30.31
2018-08-22T11:02:18.233Z,30.31
2018-08-22T11:04:47.321Z,30.46
2018-08-22T11:07:17.101Z,30.58
2018-08-22T11:09:46.226Z,30.74
2018-08-22T11:12:15.301Z,30.99
2018-08-22T11:14:44.535Z,31.36
2018-08-22T11:17:13.675Z,31.80
2018-08-22T11:19:55.753Z,32.12
2018-08-22T11:22:35.695Z,31.89
2018-08-22T11:25:15.564Z,31.69
2018-08-22T11:27:58.733Z,31.68
2018-08-22T11:30:38.613Z,31.67
2018-08-22T11:33:18.579Z,31.67
2018-08-22T11:35:46.306Z,31.90
2018-08-22T11:38:15.904Z,32.36
2018-08-22T11:40:45.120Z,32.75
2018-08-22T11:43:14.249Z,32.90
2018-08-22T11:45:43.661Z,32.99
2018-08-22T11:48:20.521Z,32.97
2018-08-22T11:50:49.617Z,33.07
2018-08-22T11:53:18.808Z,33.04
2018-08-22T11:55:48.385Z,32.86
2018-08-22T11:58:25.333Z,32.67
2018-08-22T12:00:54.433Z,32.63
2018-08-22T12:03:23.466Z,33.07
2018-08-22T12:05:52.570Z,33.78
2018-08-22T12:08:33.601Z,34.32
2018-08-22T12:11:02.860Z,34.25
2018-08-22T12:13:32.313Z,33.95
2018-08-22T12:16:01.806Z,34.03
2018-08-22T12:18:30.987Z,34.32
2018-08-22T12:21:00.425Z,34.58
2018-08-22T12:23:29.567Z,34.64
2018-08-22T12:25:58.769Z,34.95
2018-08-22T12:28:32.225Z,35.11
2018-08-22T12:31:01.486Z,35.00
2018-08-22T12:33:30.705Z,35.11
2018-08-22T12:35:59.705Z,35.00
2018-08-22T12:38:28.881Z,35.08
2018-08-22T12:40:58.031Z,35.07
2018-08-22T12:43:27.576Z,34.92
2018-08-22T12:45:56.847Z,34.88
2018-08-22T12:48:40.093Z,34.96
2018-08-22T12:51:09.534Z,34.85
2018-08-22T12:53:38.697Z,34.78
2018-08-22T12:56:08.243Z,34.72
2018-08-22T12:58:45.589Z,34.69
2018-08-22T13:01:14.851Z,34.21
2018-08-22T13:03:44.157Z,33.73
2018-08-22T13:06:13.477Z,33.38
2018-08-22T13:08:50.447Z,34.81
2018-08-22T13:11:19.938Z,37.92
2018-08-22T13:13:49.059Z,38.87
2018-08-22T13:16:18.134Z,37.64
2018-08-22T13:19:02.525Z,37.07
2018-08-22T13:21:32.040Z,39.13
2018-08-22T13:24:01.309Z,41.32
2018-08-22T13:26:30.334Z,40.15
2018-08-22T13:29:42.888Z,39.83
2018-08-22T13:32:12.133Z,39.02
2018-08-22T13:34:41.217Z,37.39
2018-08-22T13:37:10.251Z,36.43
2018-08-22T13:39:47.717Z,37.61
2018-08-22T13:42:17.011Z,39.08
2018-08-22T13:44:46.082Z,39.48
2018-08-22T13:47:15.273Z,40.72
2018-08-22T13:49:45.287Z,42.08
2018-08-22T13:52:14.447Z,42.32
2018-08-22T13:54:43.960Z,42.71
2018-08-22T13:57:13.103Z,41.30
2018-08-22T13:59:45.412Z,41.20
2018-08-22T14:02:14.482Z,42.29
2018-08-22T14:04:43.489Z,43.84
2018-08-22T14:07:12.653Z,44.51
2018-08-22T14:09:49.509Z,44.84
2018-08-22T14:12:18.510Z,45.08
2018-08-22T14:14:47.670Z,45.35
2018-08-22T14:17:16.739Z,44.18
2018-08-22T14:19:55.380Z,43.06
2018-08-22T14:22:24.476Z,41.15
2018-08-22T14:24:53.505Z,37.60
2018-08-22T14:27:22.633Z,37.81
2018-08-22T14:30:05.870Z,39.30
2018-08-22T14:32:35.467Z,41.13
2018-08-22T14:35:04.756Z,41.50
2018-08-22T14:37:33.780Z,39.64
2018-08-22T14:40:05.006Z,40.18
2018-08-22T14:42:34.245Z,41.61
2018-08-22T14:45:05.021Z,41.19
2018-08-22T14:47:34.142Z,41.21
2018-08-22T14:50:07.422Z,42.10
2018-08-22T14:52:37.463Z,42.66
2018-08-22T14:55:06.650Z,43.32
2018-08-22T14:57:35.670Z,44.23
2018-08-22T15:00:04.838Z,44.64
2018-08-22T15:02:34.110Z,44.51
2018-08-22T15:05:03.198Z,43.27
2018-08-22T15:07:32.216Z,42.33
2018-08-22T15:10:13.970Z,42.21
2018-08-22T15:12:43.190Z,41.74
2018-08-22T15:15:12.333Z,40.91
2018-08-22T15:17:45.921Z,40.55
2018-08-22T15:20:15.091Z,39.65
2018-08-22T15:22:44.360Z,39.53
2018-08-22T15:25:14.261Z,39.33
2018-08-22T15:27:43.857Z,39.54
2018-08-22T15:30:13.061Z,40.71
2018-08-22T15:32:42.140Z,40.48
2018-08-22T15:35:11.352Z,40.25
2018-08-22T15:37:40.776Z,39.02
2018-08-22T15:40:10.298Z,38.77
2018-08-22T15:42:39.276Z,38.74
2018-08-22T15:45:08.429Z,39.01
2018-08-22T15:47:37.670Z,39.55
2018-08-22T15:50:07.457Z,39.35
2018-08-22T15:52:36.622Z,38.91
2018-08-22T15:55:13.810Z,37.53
2018-08-22T15:57:54.980Z,37.91
2018-08-22T16:00:45.533Z,37.65
2018-08-22T16:03:14.771Z,37.35
2018-08-22T16:05:44.963Z,37.45
2018-08-22T16:08:15.206Z,37.54
2018-08-22T16:10:44.517Z,37.99
2018-08-22T16:13:18.906Z,37.68
2018-08-22T16:15:49.845Z,37.37
2018-08-22T16:18:19.087Z,37.27
2018-08-22T16:20:54.491Z,37.37
2018-08-22T16:23:26.633Z,36.38
2018-08-22T16:25:57.204Z,36.29
2018-08-22T16:28:27.209Z,36.49
2018-08-22T16:30:58.073Z,36.07
2018-08-22T16:33:27.286Z,35.89
2018-08-22T16:35:56.459Z,35.68
2018-08-22T16:38:25.853Z,35.59
2018-08-22T16:40:55.117Z,35.43
2018-08-22T16:43:40.282Z,35.26
2018-08-22T16:46:11.386Z,34.87
2018-08-22T16:48:41.272Z,34.78
2018-08-22T16:51:10.382Z,34.67
2018-08-22T16:53:39.833Z,34.41
2018-08-22T16:56:09.114Z,34.29
2018-08-22T16:58:38.211Z,33.55
2018-08-22T17:01:07.287Z,33.19
2018-08-22T17:03:36.388Z,33.37
2018-08-22T17:06:09.604Z,32.97
2018-08-22T17:08:38.660Z,32.85
2018-08-22T17:11:08.702Z,32.33
2018-08-22T17:13:45.696Z,32.08
2018-08-22T17:16:14.870Z,31.70
2018-08-22T17:18:44.092Z,31.42
2018-08-22T17:21:13.274Z,31.04
2018-08-22T17:23:42.970Z,30.61
2018-08-22T17:26:13.174Z,30.29
2018-08-22T17:28:44.085Z,30.09
2018-08-22T17:31:14.917Z,30.05
2018-08-22T17:33:48.555Z,29.79
2018-08-22T17:36:18.228Z,29.64
2018-08-22T17:38:48.920Z,29.44
2018-08-22T17:41:20.134Z,29.31
2018-08-22T17:44:13.149Z,28.97
2018-08-22T17:46:51.347Z,28.63
2018-08-22T17:49:20.939Z,28.35
2018-08-22T17:52:04.812Z,28.06
2018-08-22T17:54:34.081Z,27.82
2018-08-22T17:57:12.856Z,27.58
2018-08-22T17:59:43.024Z,27.36
2018-08-22T18:02:12.716Z,27.26
2018-08-22T18:04:56.798Z,27.17
2018-08-22T18:07:25.902Z,26.98
2018-08-22T18:09:55.787Z,26.90
2018-08-22T18:12:25.950Z,26.86
2018-08-22T18:14:59.267Z,26.62
2018-08-22T18:17:28.537Z,26.57
2018-08-22T18:19:57.768Z,26.43
2018-08-22T18:22:31.378Z,26.23
2018-08-22T18:25:00.566Z,26.10
2018-08-22T18:27:29.877Z,25.97
2018-08-22T18:29:58.937Z,25.88
2018-08-22T18:32:31.300Z,25.73
2018-08-22T18:35:07.348Z,25.63
2018-08-22T18:37:36.548Z,25.46
2018-08-22T18:40:12.225Z,25.45
2018-08-22T18:42:41.645Z,25.37
2018-08-22T18:45:10.856Z,25.29
2018-08-22T18:47:40.190Z,25.16
2018-08-22T18:50:09.287Z,25.07
2018-08-22T18:52:38.415Z,25.09
2018-08-22T18:55:07.553Z,25.06
2018-08-22T18:57:36.709Z,24.99
2018-08-22T19:00:08.530Z,24.94
2018-08-22T19:02:37.727Z,24.87
2018-08-22T19:05:40.685Z,24.81
2018-08-22T19:08:13.201Z,24.62
2018-08-22T19:10:43.572Z,24.50
2018-08-22T19:13:24.004Z,24.46
2018-08-22T19:15:55.352Z,24.33
2018-08-22T19:18:24.737Z,24.22
2018-08-22T19:20:56.013Z,24.06
2018-08-22T19:23:25.370Z,23.87
2018-08-22T19:25:55.108Z,23.80
2018-08-22T19:28:24.353Z,23.77
2018-08-22T19:30:53.503Z,23.72
2018-08-22T19:33:23.997Z,23.60
2018-08-22T19:35:53.222Z,23.51
2018-08-22T19:38:25.521Z,23.49
2018-08-22T19:40:54.722Z,23.47
2018-08-22T19:43:24.082Z,23.45
2018-08-22T19:45:53.327Z,23.41
2018-08-22T19:48:22.710Z,23.34
2018-08-22T19:50:52.122Z,23.27
2018-08-22T19:53:21.880Z,23.29
2018-08-22T19:55:51.132Z,23.26
2018-08-22T19:58:28.470Z,23.17
2018-08-22T20:00:59.081Z,23.11
2018-08-22T20:03:32.315Z,23.14
2018-08-22T20:06:01.478Z,23.13
2018-08-22T20:08:37.473Z,23.08
2018-08-22T20:11:07.309Z,23.02
2018-08-22T20:13:49.680Z,23.04
2018-08-22T20:16:20.154Z,23.13
2018-08-22T20:18:50.943Z,23.05
2018-08-22T20:21:26.917Z,22.98
2018-08-22T20:23:58.084Z,23.03
2018-08-22T20:26:27.965Z,22.90
2018-08-22T20:28:58.311Z,22.84
2018-08-22T20:31:27.546Z,22.82
2018-08-22T20:34:08.184Z,22.84
2018-08-22T20:36:37.397Z,22.72
2018-08-22T20:39:10.645Z,22.65
2018-08-22T20:41:41.364Z,22.63
2018-08-22T20:44:19.339Z,22.56
2018-08-22T20:46:49.775Z,22.54
2018-08-22T20:49:20.265Z,22.54
2018-08-22T20:51:50.101Z,22.47
2018-08-22T20:54:23.109Z,22.42
2018-08-22T20:56:57.344Z,22.34
2018-08-22T20:59:26.515Z,22.30
2018-08-22T21:02:10.797Z,22.27
2018-08-22T21:04:40.018Z,22.26
2018-08-22T21:07:09.225Z,22.29
2018-08-22T21:09:38.409Z,22.21
2018-08-22T21:12:07.752Z,22.19
2018-08-22T21:14:36.928Z,22.22
2018-08-22T21:17:06.337Z,22.13
2018-08-22T21:19:35.545Z,22.08
2018-08-22T21:22:09.695Z,22.03
2018-08-22T21:24:39.055Z,21.98
2018-08-22T21:27:08.270Z,21.94
2018-08-22T21:29:37.443Z,21.96
2018-08-22T21:32:06.837Z,21.96
2018-08-22T21:34:36.281Z,21.86
2018-08-22T21:37:15.020Z,21.77
2018-08-22T21:39:44.097Z,21.74
2018-08-22T21:42:13.248Z,21.66
2018-08-22T21:44:43.494Z,21.61
2018-08-22T21:47:12.773Z,21.52
2018-08-22T21:49:42.038Z,21.47
2018-08-22T21:52:11.474Z,21.57
2018-08-22T21:54:41.149Z,21.53
2018-08-22T21:57:10.267Z,21.55
2018-08-22T21:59:39.411Z,21.48
2018-08-22T22:02:09.652Z,21.45
2018-08-22T22:04:42.030Z,21.36
2018-08-22T22:07:12.289Z,21.31
2018-08-22T22:09:41.333Z,21.25
2018-08-22T22:12:15.379Z,21.19
2018-08-22T22:14:45.631Z,21.16
2018-08-22T22:17:14.738Z,21.14
2018-08-22T22:19:43.973Z,21.04
2018-08-22T22:22:13.058Z,20.95
2018-08-22T22:24:52.785Z,20.87
2018-08-22T22:27:22.105Z,20.78
2018-08-22T22:29:56.783Z,20.66
2018-08-22T22:32:25.911Z,20.47
2018-08-22T22:34:54.985Z,20.22
2018-08-22T22:37:24.093Z,20.08
2018-08-22T22:39:53.247Z,20.04
2018-08-22T22:42:30.461Z,19.90
2018-08-22T22:45:00.546Z,19.82
2018-08-22T22:47:30.893Z,19.72
2018-08-22T22:50:00.886Z,19.82
2018-08-22T22:52:38.323Z,19.85
2018-08-22T22:55:08.453Z,19.85
2018-08-22T22:57:38.753Z,19.77
2018-08-22T23:00:11.137Z,19.52
2018-08-22T23:02:40.580Z,19.25
2018-08-22T23:05:10.085Z,19.03
2018-08-22T23:07:40.349Z,18.89
2018-08-22T23:10:11.881Z,18.73
2018-08-22T23:12:43.305Z,18.58
2018-08-22T23:15:14.355Z,18.50
2018-08-22T23:17:43.960Z,18.53
2018-08-22T23:20:23.434Z,18.48
2018-08-22T23:22:52.484Z,18.33
2018-08-22T23:25:25.565Z,18.20
2018-08-22T23:27:54.776Z,18.14
2018-08-22T23:30:28.909Z,18.17
2018-08-22T23:32:58.086Z,18.24
2018-08-22T23:35:29.233Z,18.35
2018-08-22T23:37:59.451Z,18.32
2018-08-22T23:40:29.749Z,18.24
2018-08-22T23:42:59.169Z,18.26
2018-08-22T23:45:28.776Z,18.44
2018-08-22T23:47:57.854Z,18.58
2018-08-22T23:50:36.823Z,18.73
2018-08-22T23:53:05.897Z,18.87
2018-08-22T23:55:34.871Z,18.89
2018-08-22T23:58:04.274Z,18.88
